KSAT/SAT METAR and TAF weather

Enter ICAO airport designator
Station Type Date Time Source
KSAT METAR 2022/01/26 13:58 UTC NOAA

KSAT 261358Z 07009KT 10SM FEW014 OVC026 09/06 A3030 RMK AO2 T00890056


Station Type Date Time Source
KSAT Decoded METAR 2022/01/26 13:58 UTC NOAA

SAN ANTONIO INTERNATIONAL AIRPORT , TX, United States (KSAT) 29-32N 098-28W 243M
Jan 26, 2022 - 08:58 AM EST / 2022.01.26 1358 UTC
Wind: from the ENE (070 degrees) at 10 MPH (9 KT):0
Visibility: 10 mile(s):0
Sky conditions: overcast
Temperature: 48.0 F (8.9 C)
Dew Point: 42.1 F (5.6 C)
Relative Humidity: 79%
Pressure (altimeter): 30.3 in. Hg (1026 hPa)
ob: KSAT 261358Z 07009KT 10SM FEW014 OVC026 09/06 A3030 RMK AO2 T00890056
cycle: 14

Station Type Date Time Source
KSAT TAF 2022/01/26 12:40 UTC NOAA

TAF KSAT 261138Z 2612/2718 07008KT P6SM BKN015 OVC035
FM261600 06010KT P6SM SCT015 BKN035
FM261800 08007KT P6SM BKN040
FM262100 10006KT P6SM SCT050 BKN100
FM270400 05005KT P6SM OVC050

Example: see airport list